sensor_id;sensor_type;location;lat;lon;timestamp;P1;durP1;ratioP1;P2;durP2;ratioP2
59950;SDS011;45812;53.540;9.774;2022-11-13T00:00:50;20.05;;;8.13;;
59950;SDS011;45812;53.540;9.774;2022-11-13T00:03:16;17.45;;;8.10;;
59950;SDS011;45812;53.540;9.774;2022-11-13T00:05:41;21.40;;;8.38;;
59950;SDS011;45812;53.540;9.774;2022-11-13T00:08:06;20.05;;;9.05;;
59950;SDS011;45812;53.540;9.774;2022-11-13T00:10:31;19.63;;;8.80;;
59950;SDS011;45812;53.540;9.774;2022-11-13T00:12:56;19.83;;;7.93;;
59950;SDS011;45812;53.540;9.774;2022-11-13T00:15:22;20.38;;;7.93;;
59950;SDS011;45812;53.540;9.774;2022-11-13T00:17:47;15.85;;;8.05;;
59950;SDS011;45812;53.540;9.774;2022-11-13T00:20:12;18.45;;;8.23;;
59950;SDS011;45812;53.540;9.774;2022-11-13T00:22:37;18.08;;;8.40;;
59950;SDS011;45812;53.540;9.774;2022-11-13T00:25:03;17.23;;;9.20;;
59950;SDS011;45812;53.540;9.774;2022-11-13T00:27:29;16.98;;;8.48;;
59950;SDS011;45812;53.540;9.774;2022-11-13T00:29:55;20.60;;;8.63;;
59950;SDS011;45812;53.540;9.774;2022-11-13T00:32:20;17.02;;;7.60;;
59950;SDS011;45812;53.540;9.774;2022-11-13T00:34:45;17.85;;;8.13;;
59950;SDS011;45812;53.540;9.774;2022-11-13T00:37:10;17.38;;;7.57;;
59950;SDS011;45812;53.540;9.774;2022-11-13T00:39:36;18.65;;;7.88;;
59950;SDS011;45812;53.540;9.774;2022-11-13T00:42:01;16.40;;;7.85;;
59950;SDS011;45812;53.540;9.774;2022-11-13T00:44:26;16.15;;;8.32;;
59950;SDS011;45812;53.540;9.774;2022-11-13T00:46:51;14.48;;;7.38;;
59950;SDS011;45812;53.540;9.774;2022-11-13T00:49:16;14.98;;;7.50;;
59950;SDS011;45812;53.540;9.774;2022-11-13T00:51:42;17.45;;;7.80;;
59950;SDS011;45812;53.540;9.774;2022-11-13T00:54:07;19.00;;;7.90;;
59950;SDS011;45812;53.540;9.774;2022-11-13T00:56:32;18.42;;;8.75;;
59950;SDS011;45812;53.540;9.774;2022-11-13T00:58:57;18.60;;;8.38;;
59950;SDS011;45812;53.540;9.774;2022-11-13T01:01:23;16.10;;;8.35;;
59950;SDS011;45812;53.540;9.774;2022-11-13T01:03:48;21.83;;;8.60;;
59950;SDS011;45812;53.540;9.774;2022-11-13T01:06:15;16.48;;;7.72;;
59950;SDS011;45812;53.540;9.774;2022-11-13T01:08:43;17.45;;;7.93;;
59950;SDS011;45812;53.540;9.774;2022-11-13T01:11:13;20.70;;;8.02;;
59950;SDS011;45812;53.540;9.774;2022-11-13T01:13:43;18.50;;;8.17;;
59950;SDS011;45812;53.540;9.774;2022-11-13T01:16:11;14.73;;;7.97;;
59950;SDS011;45812;53.540;9.774;2022-11-13T01:18:37;18.45;;;8.20;;
59950;SDS011;45812;53.540;9.774;2022-11-13T01:21:08;17.77;;;8.50;;
59950;SDS011;45812;53.540;9.774;2022-11-13T01:23:35;22.15;;;8.75;;
59950;SDS011;45812;53.540;9.774;2022-11-13T01:26:20;21.95;;;8.82;;
59950;SDS011;45812;53.540;9.774;2022-11-13T01:28:48;16.05;;;7.93;;
59950;SDS011;45812;53.540;9.774;2022-11-13T01:31:14;20.65;;;8.63;;
59950;SDS011;45812;53.540;9.774;2022-11-13T01:33:46;21.65;;;8.52;;
59950;SDS011;45812;53.540;9.774;2022-11-13T01:36:13;18.95;;;8.25;;
59950;SDS011;45812;53.540;9.774;2022-11-13T01:38:43;19.42;;;9.27;;
59950;SDS011;45812;53.540;9.774;2022-11-13T01:41:10;19.23;;;9.25;;
59950;SDS011;45812;53.540;9.774;2022-11-13T01:44:03;19.00;;;8.68;;
59950;SDS011;45812;53.540;9.774;2022-11-13T01:46:31;19.42;;;8.68;;
59950;SDS011;45812;53.540;9.774;2022-11-13T01:51:35;23.98;;;8.90;;
59950;SDS011;45812;53.540;9.774;2022-11-13T01:54:07;20.65;;;9.10;;
59950;SDS011;45812;53.540;9.774;2022-11-13T01:56:38;22.75;;;9.98;;
59950;SDS011;45812;53.540;9.774;2022-11-13T01:59:12;21.52;;;8.70;;
59950;SDS011;45812;53.540;9.774;2022-11-13T02:01:41;19.73;;;9.73;;
59950;SDS011;45812;53.540;9.774;2022-11-13T02:04:07;20.48;;;9.43;;
59950;SDS011;45812;53.540;9.774;2022-11-13T02:06:34;22.60;;;9.63;;
59950;SDS011;45812;53.540;9.774;2022-11-13T02:09:03;19.38;;;9.43;;
59950;SDS011;45812;53.540;9.774;2022-11-13T02:11:29;21.63;;;9.15;;
59950;SDS011;45812;53.540;9.774;2022-11-13T02:13:55;20.88;;;8.25;;
59950;SDS011;45812;53.540;9.774;2022-11-13T02:16:20;21.27;;;9.18;;
59950;SDS011;45812;53.540;9.774;2022-11-13T02:18:47;18.73;;;8.85;;
59950;SDS011;45812;53.540;9.774;2022-11-13T02:21:19;24.15;;;10.07;;
59950;SDS011;45812;53.540;9.774;2022-11-13T02:26:51;20.05;;;9.13;;
59950;SDS011;45812;53.540;9.774;2022-11-13T02:29:20;17.40;;;8.32;;
59950;SDS011;45812;53.540;9.774;2022-11-13T02:31:45;21.48;;;8.25;;
59950;SDS011;45812;53.540;9.774;2022-11-13T02:34:10;24.85;;;8.38;;
59950;SDS011;45812;53.540;9.774;2022-11-13T02:36:36;20.27;;;7.93;;
59950;SDS011;45812;53.540;9.774;2022-11-13T02:39:03;16.65;;;7.90;;
59950;SDS011;45812;53.540;9.774;2022-11-13T02:41:31;17.52;;;8.45;;
59950;SDS011;45812;53.540;9.774;2022-11-13T02:43:57;21.08;;;9.40;;
59950;SDS011;45812;53.540;9.774;2022-11-13T02:46:22;21.20;;;9.48;;
59950;SDS011;45812;53.540;9.774;2022-11-13T02:48:47;20.20;;;9.30;;
59950;SDS011;45812;53.540;9.774;2022-11-13T02:51:12;23.38;;;9.38;;
59950;SDS011;45812;53.540;9.774;2022-11-13T02:53:38;20.67;;;9.02;;
59950;SDS011;45812;53.540;9.774;2022-11-13T02:56:03;21.27;;;9.60;;
59950;SDS011;45812;53.540;9.774;2022-11-13T02:58:29;19.23;;;9.07;;
59950;SDS011;45812;53.540;9.774;2022-11-13T03:00:54;23.20;;;9.90;;
59950;SDS011;45812;53.540;9.774;2022-11-13T03:03:19;25.15;;;9.80;;
59950;SDS011;45812;53.540;9.774;2022-11-13T03:05:48;19.63;;;9.95;;
59950;SDS011;45812;53.540;9.774;2022-11-13T03:08:14;23.50;;;10.98;;
59950;SDS011;45812;53.540;9.774;2022-11-13T03:10:39;20.77;;;9.73;;
59950;SDS011;45812;53.540;9.774;2022-11-13T03:13:05;20.23;;;10.00;;
59950;SDS011;45812;53.540;9.774;2022-11-13T03:15:30;23.63;;;10.25;;
59950;SDS011;45812;53.540;9.774;2022-11-13T03:17:55;24.10;;;10.27;;
59950;SDS011;45812;53.540;9.774;2022-11-13T03:20:20;22.00;;;10.02;;
59950;SDS011;45812;53.540;9.774;2022-11-13T03:22:46;24.67;;;9.98;;
59950;SDS011;45812;53.540;9.774;2022-11-13T03:25:11;24.15;;;10.32;;
59950;SDS011;45812;53.540;9.774;2022-11-13T03:27:36;22.27;;;10.15;;
59950;SDS011;45812;53.540;9.774;2022-11-13T03:30:02;20.45;;;10.48;;
59950;SDS011;45812;53.540;9.774;2022-11-13T03:32:28;21.42;;;10.40;;
59950;SDS011;45812;53.540;9.774;2022-11-13T03:34:53;22.58;;;9.88;;
59950;SDS011;45812;53.540;9.774;2022-11-13T03:37:18;21.83;;;10.88;;
59950;SDS011;45812;53.540;9.774;2022-11-13T03:39:43;23.27;;;10.15;;
59950;SDS011;45812;53.540;9.774;2022-11-13T03:42:08;22.02;;;10.48;;
59950;SDS011;45812;53.540;9.774;2022-11-13T03:44:34;24.35;;;9.90;;
59950;SDS011;45812;53.540;9.774;2022-11-13T03:46:59;20.27;;;9.30;;
59950;SDS011;45812;53.540;9.774;2022-11-13T03:49:24;20.65;;;9.60;;
59950;SDS011;45812;53.540;9.774;2022-11-13T03:51:50;21.23;;;9.80;;
59950;SDS011;45812;53.540;9.774;2022-11-13T03:54:15;21.45;;;10.40;;
59950;SDS011;45812;53.540;9.774;2022-11-13T03:56:40;23.08;;;11.38;;
59950;SDS011;45812;53.540;9.774;2022-11-13T03:59:05;24.92;;;10.23;;
59950;SDS011;45812;53.540;9.774;2022-11-13T04:01:31;22.17;;;10.02;;
59950;SDS011;45812;53.540;9.774;2022-11-13T04:03:56;20.75;;;9.85;;
59950;SDS011;45812;53.540;9.774;2022-11-13T04:06:21;23.95;;;10.15;;
59950;SDS011;45812;53.540;9.774;2022-11-13T04:08:47;21.85;;;10.20;;
59950;SDS011;45812;53.540;9.774;2022-11-13T04:11:12;21.73;;;9.88;;
59950;SDS011;45812;53.540;9.774;2022-11-13T04:13:37;25.13;;;10.45;;
59950;SDS011;45812;53.540;9.774;2022-11-13T04:16:03;23.40;;;10.30;;
59950;SDS011;45812;53.540;9.774;2022-11-13T04:18:28;19.70;;;9.35;;
59950;SDS011;45812;53.540;9.774;2022-11-13T04:21:03;21.48;;;9.95;;
59950;SDS011;45812;53.540;9.774;2022-11-13T04:23:29;24.92;;;10.70;;
59950;SDS011;45812;53.540;9.774;2022-11-13T04:25:55;22.33;;;10.65;;
59950;SDS011;45812;53.540;9.774;2022-11-13T04:28:21;20.27;;;9.65;;
59950;SDS011;45812;53.540;9.774;2022-11-13T04:30:46;20.33;;;9.70;;
59950;SDS011;45812;53.540;9.774;2022-11-13T04:33:12;24.08;;;10.75;;
59950;SDS011;45812;53.540;9.774;2022-11-13T04:35:38;23.92;;;10.35;;
59950;SDS011;45812;53.540;9.774;2022-11-13T04:38:05;23.17;;;10.02;;
59950;SDS011;45812;53.540;9.774;2022-11-13T04:40:31;23.73;;;10.40;;
59950;SDS011;45812;53.540;9.774;2022-11-13T04:42:56;25.08;;;10.15;;
59950;SDS011;45812;53.540;9.774;2022-11-13T04:45:22;24.75;;;10.77;;
59950;SDS011;45812;53.540;9.774;2022-11-13T04:47:49;21.58;;;10.40;;
59950;SDS011;45812;53.540;9.774;2022-11-13T04:50:15;20.92;;;10.50;;
59950;SDS011;45812;53.540;9.774;2022-11-13T04:52:40;24.73;;;10.57;;
59950;SDS011;45812;53.540;9.774;2022-11-13T04:55:06;23.67;;;10.13;;
59950;SDS011;45812;53.540;9.774;2022-11-13T04:57:32;23.30;;;10.48;;
59950;SDS011;45812;53.540;9.774;2022-11-13T04:59:58;22.52;;;10.75;;
59950;SDS011;45812;53.540;9.774;2022-11-13T05:02:23;26.52;;;11.02;;
59950;SDS011;45812;53.540;9.774;2022-11-13T05:04:48;25.95;;;11.20;;
59950;SDS011;45812;53.540;9.774;2022-11-13T05:07:14;26.38;;;11.77;;
59950;SDS011;45812;53.540;9.774;2022-11-13T05:09:39;23.40;;;10.93;;
59950;SDS011;45812;53.540;9.774;2022-11-13T05:12:04;26.65;;;11.05;;
59950;SDS011;45812;53.540;9.774;2022-11-13T05:14:33;25.17;;;11.25;;
59950;SDS011;45812;53.540;9.774;2022-11-13T05:16:59;22.90;;;10.85;;
59950;SDS011;45812;53.540;9.774;2022-11-13T05:19:25;21.15;;;11.00;;
59950;SDS011;45812;53.540;9.774;2022-11-13T05:21:50;23.42;;;11.15;;
59950;SDS011;45812;53.540;9.774;2022-11-13T05:24:15;23.98;;;11.57;;
59950;SDS011;45812;53.540;9.774;2022-11-13T05:26:40;24.77;;;11.15;;
59950;SDS011;45812;53.540;9.774;2022-11-13T05:29:06;24.17;;;10.57;;
59950;SDS011;45812;53.540;9.774;2022-11-13T05:31:31;21.63;;;10.52;;
59950;SDS011;45812;53.540;9.774;2022-11-13T05:33:56;21.00;;;10.13;;
59950;SDS011;45812;53.540;9.774;2022-11-13T05:36:22;23.83;;;11.15;;
59950;SDS011;45812;53.540;9.774;2022-11-13T05:38:47;23.52;;;10.32;;
59950;SDS011;45812;53.540;9.774;2022-11-13T05:41:14;23.40;;;10.77;;
59950;SDS011;45812;53.540;9.774;2022-11-13T05:43:41;23.35;;;10.35;;
59950;SDS011;45812;53.540;9.774;2022-11-13T05:46:08;24.85;;;11.20;;
59950;SDS011;45812;53.540;9.774;2022-11-13T05:48:38;24.65;;;10.02;;
59950;SDS011;45812;53.540;9.774;2022-11-13T05:51:05;22.33;;;9.88;;
59950;SDS011;45812;53.540;9.774;2022-11-13T05:53:35;23.38;;;11.52;;
59950;SDS011;45812;53.540;9.774;2022-11-13T05:56:05;19.85;;;10.77;;
59950;SDS011;45812;53.540;9.774;2022-11-13T05:58:42;24.40;;;10.98;;
59950;SDS011;45812;53.540;9.774;2022-11-13T06:01:12;27.48;;;11.77;;
59950;SDS011;45812;53.540;9.774;2022-11-13T06:03:40;24.38;;;11.30;;
59950;SDS011;45812;53.540;9.774;2022-11-13T06:06:07;24.23;;;10.30;;
59950;SDS011;45812;53.540;9.774;2022-11-13T06:08:36;24.45;;;11.70;;
59950;SDS011;45812;53.540;9.774;2022-11-13T06:11:02;23.20;;;11.13;;
59950;SDS011;45812;53.540;9.774;2022-11-13T06:13:32;19.08;;;9.90;;
59950;SDS011;45812;53.540;9.774;2022-11-13T06:16:02;21.88;;;9.93;;
59950;SDS011;45812;53.540;9.774;2022-11-13T06:18:31;24.88;;;10.55;;
59950;SDS011;45812;53.540;9.774;2022-11-13T06:21:00;23.52;;;9.82;;
59950;SDS011;45812;53.540;9.774;2022-11-13T06:23:26;23.83;;;10.50;;
59950;SDS011;45812;53.540;9.774;2022-11-13T06:25:51;21.60;;;10.23;;
59950;SDS011;45812;53.540;9.774;2022-11-13T06:28:17;27.77;;;12.10;;
59950;SDS011;45812;53.540;9.774;2022-11-13T06:30:42;24.58;;;11.27;;
59950;SDS011;45812;53.540;9.774;2022-11-13T06:33:07;23.75;;;10.57;;
59950;SDS011;45812;53.540;9.774;2022-11-13T06:35:32;26.23;;;12.13;;
59950;SDS011;45812;53.540;9.774;2022-11-13T06:37:58;24.88;;;11.32;;
59950;SDS011;45812;53.540;9.774;2022-11-13T06:40:23;22.58;;;10.80;;
59950;SDS011;45812;53.540;9.774;2022-11-13T06:42:48;23.45;;;10.52;;
59950;SDS011;45812;53.540;9.774;2022-11-13T06:45:13;22.35;;;11.13;;
59950;SDS011;45812;53.540;9.774;2022-11-13T06:47:39;24.38;;;11.93;;
59950;SDS011;45812;53.540;9.774;2022-11-13T06:50:04;23.10;;;10.13;;
59950;SDS011;45812;53.540;9.774;2022-11-13T06:52:30;24.20;;;10.88;;
59950;SDS011;45812;53.540;9.774;2022-11-13T06:54:56;26.25;;;10.93;;
59950;SDS011;45812;53.540;9.774;2022-11-13T06:57:21;23.42;;;10.63;;
59950;SDS011;45812;53.540;9.774;2022-11-13T06:59:46;23.98;;;10.45;;
59950;SDS011;45812;53.540;9.774;2022-11-13T07:02:12;23.67;;;11.57;;
59950;SDS011;45812;53.540;9.774;2022-11-13T07:04:37;23.33;;;11.05;;
59950;SDS011;45812;53.540;9.774;2022-11-13T07:07:02;23.40;;;11.40;;
59950;SDS011;45812;53.540;9.774;2022-11-13T07:09:28;27.25;;;12.10;;
59950;SDS011;45812;53.540;9.774;2022-11-13T07:11:54;27.67;;;11.35;;
59950;SDS011;45812;53.540;9.774;2022-11-13T07:14:19;26.83;;;12.27;;
59950;SDS011;45812;53.540;9.774;2022-11-13T07:16:44;26.70;;;12.48;;
59950;SDS011;45812;53.540;9.774;2022-11-13T07:19:10;25.77;;;11.60;;
59950;SDS011;45812;53.540;9.774;2022-11-13T07:21:35;29.52;;;12.95;;
59950;SDS011;45812;53.540;9.774;2022-11-13T07:24:00;25.45;;;11.68;;
59950;SDS011;45812;53.540;9.774;2022-11-13T07:26:25;27.92;;;12.15;;
59950;SDS011;45812;53.540;9.774;2022-11-13T07:28:51;28.45;;;13.50;;
59950;SDS011;45812;53.540;9.774;2022-11-13T07:31:16;29.00;;;12.68;;
59950;SDS011;45812;53.540;9.774;2022-11-13T07:33:42;28.38;;;12.25;;
59950;SDS011;45812;53.540;9.774;2022-11-13T07:36:07;26.52;;;12.35;;
59950;SDS011;45812;53.540;9.774;2022-11-13T07:38:33;26.02;;;10.93;;
59950;SDS011;45812;53.540;9.774;2022-11-13T07:40:59;26.85;;;12.13;;
59950;SDS011;45812;53.540;9.774;2022-11-13T07:43:24;26.65;;;12.52;;
59950;SDS011;45812;53.540;9.774;2022-11-13T07:45:50;26.98;;;12.13;;
59950;SDS011;45812;53.540;9.774;2022-11-13T07:48:18;26.90;;;12.27;;
59950;SDS011;45812;53.540;9.774;2022-11-13T07:50:45;27.42;;;12.77;;
59950;SDS011;45812;53.540;9.774;2022-11-13T07:53:10;29.63;;;12.48;;
59950;SDS011;45812;53.540;9.774;2022-11-13T07:55:35;27.77;;;13.45;;
59950;SDS011;45812;53.540;9.774;2022-11-13T07:58:01;32.40;;;13.10;;
59950;SDS011;45812;53.540;9.774;2022-11-13T08:00:28;27.13;;;12.75;;
59950;SDS011;45812;53.540;9.774;2022-11-13T08:02:54;27.48;;;12.15;;
59950;SDS011;45812;53.540;9.774;2022-11-13T08:05:20;26.25;;;12.05;;
59950;SDS011;45812;53.540;9.774;2022-11-13T08:07:46;28.52;;;12.43;;
59950;SDS011;45812;53.540;9.774;2022-11-13T08:10:12;27.95;;;12.85;;
59950;SDS011;45812;53.540;9.774;2022-11-13T08:12:37;28.90;;;11.98;;
59950;SDS011;45812;53.540;9.774;2022-11-13T08:15:03;29.45;;;11.98;;
59950;SDS011;45812;53.540;9.774;2022-11-13T08:17:28;28.88;;;11.82;;
59950;SDS011;45812;53.540;9.774;2022-11-13T08:19:54;26.02;;;12.65;;
59950;SDS011;45812;53.540;9.774;2022-11-13T08:22:19;26.77;;;12.02;;
59950;SDS011;45812;53.540;9.774;2022-11-13T08:24:44;26.73;;;11.80;;
59950;SDS011;45812;53.540;9.774;2022-11-13T08:27:09;27.48;;;11.95;;
59950;SDS011;45812;53.540;9.774;2022-11-13T08:29:35;26.13;;;12.07;;
59950;SDS011;45812;53.540;9.774;2022-11-13T08:32:01;24.02;;;10.90;;
59950;SDS011;45812;53.540;9.774;2022-11-13T08:34:27;25.85;;;11.88;;
59950;SDS011;45812;53.540;9.774;2022-11-13T08:36:52;29.42;;;12.95;;
59950;SDS011;45812;53.540;9.774;2022-11-13T08:39:17;26.48;;;11.93;;
59950;SDS011;45812;53.540;9.774;2022-11-13T08:41:42;25.80;;;12.25;;
59950;SDS011;45812;53.540;9.774;2022-11-13T08:44:07;27.10;;;11.60;;
59950;SDS011;45812;53.540;9.774;2022-11-13T08:46:34;27.58;;;11.73;;
59950;SDS011;45812;53.540;9.774;2022-11-13T08:48:59;27.40;;;11.70;;
59950;SDS011;45812;53.540;9.774;2022-11-13T08:51:24;31.38;;;12.57;;
59950;SDS011;45812;53.540;9.774;2022-11-13T08:53:50;26.05;;;11.40;;
59950;SDS011;45812;53.540;9.774;2022-11-13T08:56:15;28.80;;;12.02;;
59950;SDS011;45812;53.540;9.774;2022-11-13T08:58:40;23.77;;;10.48;;
59950;SDS011;45812;53.540;9.774;2022-11-13T09:01:05;27.98;;;11.18;;
59950;SDS011;45812;53.540;9.774;2022-11-13T09:03:30;30.58;;;11.43;;
59950;SDS011;45812;53.540;9.774;2022-11-13T09:05:56;27.02;;;11.30;;
59950;SDS011;45812;53.540;9.774;2022-11-13T09:08:21;26.38;;;11.02;;
59950;SDS011;45812;53.540;9.774;2022-11-13T09:10:46;26.33;;;10.77;;
59950;SDS011;45812;53.540;9.774;2022-11-13T09:13:12;27.35;;;12.00;;
59950;SDS011;45812;53.540;9.774;2022-11-13T09:15:37;25.02;;;10.95;;
59950;SDS011;45812;53.540;9.774;2022-11-13T09:18:03;22.30;;;9.55;;
59950;SDS011;45812;53.540;9.774;2022-11-13T09:20:29;23.88;;;10.60;;
59950;SDS011;45812;53.540;9.774;2022-11-13T09:23:04;25.48;;;10.43;;
59950;SDS011;45812;53.540;9.774;2022-11-13T09:25:32;24.70;;;9.77;;
59950;SDS011;45812;53.540;9.774;2022-11-13T09:28:00;24.20;;;10.05;;
59950;SDS011;45812;53.540;9.774;2022-11-13T09:30:26;22.17;;;9.77;;
59950;SDS011;45812;53.540;9.774;2022-11-13T09:32:53;25.40;;;10.25;;
59950;SDS011;45812;53.540;9.774;2022-11-13T09:35:21;25.23;;;10.20;;
59950;SDS011;45812;53.540;9.774;2022-11-13T09:37:58;26.75;;;10.70;;
59950;SDS011;45812;53.540;9.774;2022-11-13T09:40:27;24.40;;;10.80;;
59950;SDS011;45812;53.540;9.774;2022-11-13T09:42:56;25.40;;;10.45;;
59950;SDS011;45812;53.540;9.774;2022-11-13T09:45:23;23.65;;;8.98;;
59950;SDS011;45812;53.540;9.774;2022-11-13T09:47:48;26.17;;;10.40;;
59950;SDS011;45812;53.540;9.774;2022-11-13T09:50:19;23.35;;;9.85;;
59950;SDS011;45812;53.540;9.774;2022-11-13T09:52:50;26.65;;;10.77;;
59950;SDS011;45812;53.540;9.774;2022-11-13T09:55:18;29.45;;;10.45;;
59950;SDS011;45812;53.540;9.774;2022-11-13T09:57:50;28.08;;;10.10;;
59950;SDS011;45812;53.540;9.774;2022-11-13T10:00:21;25.95;;;10.73;;
59950;SDS011;45812;53.540;9.774;2022-11-13T10:03:11;25.98;;;11.27;;
59950;SDS011;45812;53.540;9.774;2022-11-13T10:06:00;30.08;;;11.15;;
59950;SDS011;45812;53.540;9.774;2022-11-13T10:08:38;26.83;;;10.75;;
59950;SDS011;45812;53.540;9.774;2022-11-13T10:14:06;29.05;;;11.20;;
59950;SDS011;45812;53.540;9.774;2022-11-13T10:22:15;26.20;;;10.77;;
59950;SDS011;45812;53.540;9.774;2022-11-13T10:24:42;28.80;;;11.80;;
59950;SDS011;45812;53.540;9.774;2022-11-13T10:27:09;29.25;;;12.60;;
59950;SDS011;45812;53.540;9.774;2022-11-13T10:29:36;28.08;;;11.32;;
59950;SDS011;45812;53.540;9.774;2022-11-13T10:32:16;29.85;;;11.85;;
59950;SDS011;45812;53.540;9.774;2022-11-13T10:34:46;26.80;;;10.55;;
59950;SDS011;45812;53.540;9.774;2022-11-13T10:37:21;28.17;;;11.07;;
59950;SDS011;45812;53.540;9.774;2022-11-13T10:39:52;27.67;;;11.02;;
59950;SDS011;45812;53.540;9.774;2022-11-13T10:42:19;27.10;;;10.98;;
59950;SDS011;45812;53.540;9.774;2022-11-13T10:44:56;25.50;;;11.32;;
59950;SDS011;45812;53.540;9.774;2022-11-13T10:47:24;27.63;;;11.88;;
59950;SDS011;45812;53.540;9.774;2022-11-13T10:49:51;25.95;;;11.25;;
59950;SDS011;45812;53.540;9.774;2022-11-13T10:52:25;28.85;;;12.00;;
59950;SDS011;45812;53.540;9.774;2022-11-13T10:57:56;32.22;;;12.27;;
59950;SDS011;45812;53.540;9.774;2022-11-13T11:00:29;28.45;;;11.88;;
59950;SDS011;45812;53.540;9.774;2022-11-13T11:02:59;26.65;;;11.55;;
59950;SDS011;45812;53.540;9.774;2022-11-13T11:05:25;29.10;;;12.35;;
59950;SDS011;45812;53.540;9.774;2022-11-13T11:07:52;27.33;;;11.82;;
59950;SDS011;45812;53.540;9.774;2022-11-13T11:10:24;28.65;;;12.38;;
59950;SDS011;45812;53.540;9.774;2022-11-13T11:15:50;26.33;;;12.45;;
59950;SDS011;45812;53.540;9.774;2022-11-13T11:18:23;28.77;;;12.27;;
59950;SDS011;45812;53.540;9.774;2022-11-13T11:20:54;28.38;;;13.50;;
59950;SDS011;45812;53.540;9.774;2022-11-13T11:26:17;26.90;;;12.40;;
59950;SDS011;45812;53.540;9.774;2022-11-13T11:32:00;29.20;;;13.43;;
59950;SDS011;45812;53.540;9.774;2022-11-13T11:34:39;27.08;;;12.73;;
59950;SDS011;45812;53.540;9.774;2022-11-13T11:37:13;28.15;;;12.20;;
59950;SDS011;45812;53.540;9.774;2022-11-13T11:39:46;27.05;;;12.77;;
59950;SDS011;45812;53.540;9.774;2022-11-13T11:45:12;30.00;;;12.68;;
59950;SDS011;45812;53.540;9.774;2022-11-13T11:47:54;25.20;;;11.57;;
59950;SDS011;45812;53.540;9.774;2022-11-13T11:56:02;30.98;;;14.10;;
59950;SDS011;45812;53.540;9.774;2022-11-13T11:58:51;25.15;;;11.35;;
59950;SDS011;45812;53.540;9.774;2022-11-13T12:02:23;24.50;;;10.52;;
59950;SDS011;45812;53.540;9.774;2022-11-13T12:07:27;26.83;;;10.95;;
59950;SDS011;45812;53.540;9.774;2022-11-13T12:10:08;26.90;;;12.13;;
59950;SDS011;45812;53.540;9.774;2022-11-13T12:18:25;28.80;;;12.55;;
59950;SDS011;45812;53.540;9.774;2022-11-13T12:21:11;24.90;;;11.80;;
59950;SDS011;45812;53.540;9.774;2022-11-13T12:24:08;26.13;;;11.52;;
59950;SDS011;45812;53.540;9.774;2022-11-13T12:26:45;29.60;;;12.85;;
59950;SDS011;45812;53.540;9.774;2022-11-13T12:35:09;24.23;;;11.80;;
59950;SDS011;45812;53.540;9.774;2022-11-13T12:37:43;23.73;;;10.68;;
59950;SDS011;45812;53.540;9.774;2022-11-13T12:40:13;26.25;;;11.43;;
59950;SDS011;45812;53.540;9.774;2022-11-13T12:42:46;23.85;;;11.73;;
59950;SDS011;45812;53.540;9.774;2022-11-13T12:48:08;22.65;;;10.77;;
59950;SDS011;45812;53.540;9.774;2022-11-13T12:50:34;24.25;;;10.50;;
59950;SDS011;45812;53.540;9.774;2022-11-13T12:53:01;22.15;;;10.38;;
59950;SDS011;45812;53.540;9.774;2022-11-13T12:55:36;22.73;;;10.30;;
59950;SDS011;45812;53.540;9.774;2022-11-13T12:58:06;19.92;;;9.45;;
59950;SDS011;45812;53.540;9.774;2022-11-13T13:00:34;21.98;;;9.65;;
59950;SDS011;45812;53.540;9.774;2022-11-13T13:05:52;22.02;;;9.10;;
59950;SDS011;45812;53.540;9.774;2022-11-13T13:08:33;20.98;;;9.35;;
59950;SDS011;45812;53.540;9.774;2022-11-13T13:11:14;17.48;;;8.90;;
59950;SDS011;45812;53.540;9.774;2022-11-13T13:16:41;22.85;;;10.23;;
59950;SDS011;45812;53.540;9.774;2022-11-13T13:19:25;20.92;;;9.88;;
59950;SDS011;45812;53.540;9.774;2022-11-13T13:21:53;23.38;;;10.43;;
59950;SDS011;45812;53.540;9.774;2022-11-13T13:24:29;23.58;;;10.30;;
59950;SDS011;45812;53.540;9.774;2022-11-13T13:26:56;20.35;;;9.55;;
59950;SDS011;45812;53.540;9.774;2022-11-13T13:29:23;20.83;;;9.32;;
59950;SDS011;45812;53.540;9.774;2022-11-13T13:35:10;20.27;;;9.75;;
59950;SDS011;45812;53.540;9.774;2022-11-13T13:37:59;20.10;;;9.48;;
59950;SDS011;45812;53.540;9.774;2022-11-13T13:40:33;19.50;;;9.25;;
59950;SDS011;45812;53.540;9.774;2022-11-13T13:46:18;140.13;;;55.10;;
59950;SDS011;45812;53.540;9.774;2022-11-13T13:48:46;116.25;;;49.10;;
59950;SDS011;45812;53.540;9.774;2022-11-13T13:51:20;46.67;;;24.73;;
59950;SDS011;45812;53.540;9.774;2022-11-13T13:53:53;39.63;;;23.52;;
59950;SDS011;45812;53.540;9.774;2022-11-13T13:56:22;28.73;;;13.27;;
59950;SDS011;45812;53.540;9.774;2022-11-13T13:58:48;22.17;;;10.85;;
59950;SDS011;45812;53.540;9.774;2022-11-13T14:01:24;20.08;;;10.15;;
59950;SDS011;45812;53.540;9.774;2022-11-13T14:06:49;19.23;;;9.05;;
59950;SDS011;45812;53.540;9.774;2022-11-13T14:09:18;21.65;;;9.75;;
59950;SDS011;45812;53.540;9.774;2022-11-13T14:11:45;23.00;;;10.13;;
59950;SDS011;45812;53.540;9.774;2022-11-13T14:14:21;21.15;;;9.98;;
59950;SDS011;45812;53.540;9.774;2022-11-13T14:16:51;19.55;;;9.93;;
59950;SDS011;45812;53.540;9.774;2022-11-13T14:19:18;26.48;;;10.35;;
59950;SDS011;45812;53.540;9.774;2022-11-13T14:21:44;22.73;;;10.90;;
59950;SDS011;45812;53.540;9.774;2022-11-13T14:24:14;18.55;;;9.32;;
59950;SDS011;45812;53.540;9.774;2022-11-13T14:26:44;23.63;;;10.52;;
59950;SDS011;45812;53.540;9.774;2022-11-13T14:29:14;25.52;;;10.50;;
59950;SDS011;45812;53.540;9.774;2022-11-13T14:31:45;23.92;;;11.23;;
59950;SDS011;45812;53.540;9.774;2022-11-13T14:34:13;21.15;;;10.02;;
59950;SDS011;45812;53.540;9.774;2022-11-13T14:36:42;21.10;;;9.85;;
59950;SDS011;45812;53.540;9.774;2022-11-13T14:39:13;21.50;;;9.40;;
59950;SDS011;45812;53.540;9.774;2022-11-13T14:41:48;21.20;;;10.93;;
59950;SDS011;45812;53.540;9.774;2022-11-13T14:44:24;25.38;;;10.63;;
59950;SDS011;45812;53.540;9.774;2022-11-13T14:46:57;19.95;;;9.30;;
59950;SDS011;45812;53.540;9.774;2022-11-13T14:49:25;22.70;;;10.32;;
59950;SDS011;45812;53.540;9.774;2022-11-13T14:51:53;19.73;;;10.13;;
59950;SDS011;45812;53.540;9.774;2022-11-13T14:54:26;26.70;;;12.23;;
59950;SDS011;45812;53.540;9.774;2022-11-13T14:56:53;22.80;;;11.13;;
59950;SDS011;45812;53.540;9.774;2022-11-13T14:59:26;24.95;;;12.38;;
59950;SDS011;45812;53.540;9.774;2022-11-13T15:01:53;27.23;;;11.88;;
59950;SDS011;45812;53.540;9.774;2022-11-13T15:04:19;26.35;;;13.07;;
59950;SDS011;45812;53.540;9.774;2022-11-13T15:06:45;26.63;;;12.00;;
59950;SDS011;45812;53.540;9.774;2022-11-13T15:09:13;27.55;;;12.57;;
59950;SDS011;45812;53.540;9.774;2022-11-13T15:11:40;28.15;;;12.77;;
59950;SDS011;45812;53.540;9.774;2022-11-13T15:14:09;30.42;;;14.90;;
59950;SDS011;45812;53.540;9.774;2022-11-13T15:16:36;26.92;;;12.30;;
59950;SDS011;45812;53.540;9.774;2022-11-13T15:19:02;27.00;;;12.88;;
59950;SDS011;45812;53.540;9.774;2022-11-13T15:21:31;33.67;;;13.98;;
59950;SDS011;45812;53.540;9.774;2022-11-13T15:23:56;28.85;;;13.60;;
59950;SDS011;45812;53.540;9.774;2022-11-13T15:26:22;30.00;;;14.18;;
59950;SDS011;45812;53.540;9.774;2022-11-13T15:28:48;32.70;;;14.30;;
59950;SDS011;45812;53.540;9.774;2022-11-13T15:31:28;32.42;;;14.98;;
59950;SDS011;45812;53.540;9.774;2022-11-13T15:33:55;31.25;;;13.50;;
59950;SDS011;45812;53.540;9.774;2022-11-13T15:36:21;26.70;;;13.93;;
59950;SDS011;45812;53.540;9.774;2022-11-13T15:38:46;28.35;;;14.05;;